Overview Statistics Trail Chart Weather Telemetry Raw packets
 

This is the latest recevied weather packets stored in our database for station/object KJ5FA-10. If no packets are shown the sender has not sent any weather packets the latest 10 day(s).

<< 14 15 16 17 18 19 20 >>
Time Temp. Humidity Pressure Rain* Wind** Luminosity Snow
1788127782 35.56° C 33% 1015 hPa 0 mm - - -
1788126882 36.67° C 33% 1015.7 hPa 0 mm - - -
1788125981 36.11° C 33% 1015.5 hPa 0 mm - - -
1788125081 36.67° C 32% 1015.4 hPa 0 mm - - -
1788124181 36.67° C 33% 1015.5 hPa 0 mm - - -
1788123281 36.67° C 34% 1015.5 hPa 0 mm - - -
1788122381 36.11° C 34% 1016 hPa 0 mm - - -
1788121481 36.67° C 34% 1016.2 hPa 0 mm - - -
1788120581 36.11° C 36% 1016.1 hPa 0 mm - - -
1788119681 36.11° C 34% 1016.6 hPa 0 mm - - -
1788118781 35.56° C 35% 1016.9 hPa 0 mm - - -
1788117882 35.56° C 35% 1017 hPa 0 mm - - -
1788116982 35° C 32% 1017.1 hPa 0 mm - - -
1788116081 35.56° C 33% 1017.1 hPa 0 mm - - -
1788115181 35° C 34% 1017.1 hPa 0 mm - - -
1788114281 35° C 35% 1017.6 hPa 0 mm - - -
1788113382 35° C 34% 1017.6 hPa 0 mm - - -
1788112481 33.89° C 39% 1017.6 hPa 0 mm - - -
1788111588 34.44° C 36% 1018.1 hPa 0 mm - - -
1788110681 33.33° C 37% 1018.1 hPa 0 mm - - -
1788109781 33.89° C 36% 1018.4 hPa 0 mm - - -
1788108881 33.33° C 37% 1018.4 hPa 0 mm - - -
1788107981 32.22° C 41% 1018.5 hPa 0 mm - - -
1788107081 31.67° C 45% 1019 hPa 0 mm - - -
1788106181 31.11° C 48% 1018.7 hPa 0 mm - - -

* Rain latest hour (hover to see other rain measurements)
** Current wind speed in m/s (hover to see current wind gust speed)